Time;durP1;ratioP1;P1;durP2;ratioP2;P2;SDS_P1;SDS_P2;PMS_P1;PMS_P2;Temp;Humidity;BMP_temperature;BMP_pressure;BME280_temperature;BME280_humidity;BME280_pressure;Samples;Min_cycle;Max_cycle;Signal;HPM_P1;HPM_P2
2022/08/02 00:01:32;;;;;;;3.10;1.60;;;;;;;16.20;96.19;98662.59;5063477;28;20013;-70
2022/08/02 00:03:58;;;;;;;4.65;1.52;;;;;;;16.28;95.77;98663.16;5063491;28;20320;-70
2022/08/02 00:06:23;;;;;;;2.70;1.40;;;;;;;16.20;95.96;98661.75;5066237;28;20376;-70
2022/08/02 00:08:48;;;;;;;6.22;1.50;;;;;;;16.27;96.22;98664.09;5067345;28;20092;-70
2022/08/02 00:11:14;;;;;;;2.33;1.40;;;;;;;16.33;95.88;98668.28;5067254;28;20021;-70
2022/08/02 00:13:39;;;;;;;8.52;1.98;;;;;;;16.35;95.85;98661.09;5067208;28;20025;-70
2022/08/02 00:16:05;;;;;;;2.42;1.52;;;;;;;16.38;95.82;98661.84;5067188;28;20031;-70
2022/08/02 00:18:30;;;;;;;4.60;1.85;;;;;;;16.38;95.67;98661.84;5055249;28;20021;-70
2022/08/02 00:20:56;;;;;;;2.45;1.40;;;;;;;16.33;95.52;98663.81;5047140;28;20036;-70
2022/08/02 00:23:22;;;;;;;4.63;1.95;;;;;;;16.17;95.86;98646.78;5048020;28;20059;-70
2022/08/02 00:25:47;;;;;;;2.70;1.45;;;;;;;16.05;96.16;98649.09;5067087;28;20096;-70
2022/08/02 00:28:13;;;;;;;3.75;1.60;;;;;;;15.88;96.79;98647.09;5066852;28;20056;-70
2022/08/02 00:30:38;;;;;;;4.13;1.63;;;;;;;15.93;97.27;98652.22;5066918;28;20028;-70
2022/08/02 00:33:04;;;;;;;4.70;1.70;;;;;;;16.00;97.36;98651.94;5066785;28;20024;-70
2022/08/02 00:35:31;;;;;;;3.55;1.98;;;;;;;16.01;96.86;98645.69;5066812;28;20071;-70
2022/08/02 00:37:56;;;;;;;4.28;1.83;;;;;;;16.00;97.02;98648.41;5066744;28;20031;-70
2022/08/02 00:40:22;;;;;;;4.70;1.52;;;;;;;15.93;96.88;98645.16;5066804;28;20021;-70
2022/08/02 00:43:05;;;;;;;5.47;1.67;;;;;;;15.75;97.31;98653.84;5066818;28;20017;-70
2022/08/02 00:45:31;;;;;;;5.32;1.50;;;;;;;15.71;98.16;98652.22;5066941;28;20312;-70
2022/08/02 00:47:57;;;;;;;2.42;1.48;;;;;;;15.68;97.65;98647.03;5066572;28;20021;-70
2022/08/02 00:50:22;;;;;;;2.58;1.75;;;;;;;15.55;97.36;98656.41;5050052;28;20033;-70
2022/08/02 00:52:47;;;;;;;7.85;1.98;;;;;;;15.52;98.17;98655.66;5046535;28;20360;-70
2022/08/02 00:55:13;;;;;;;5.00;1.80;;;;;;;15.41;98.18;98642.78;5046481;28;20097;-70
2022/08/02 00:57:38;;;;;;;3.15;1.80;;;;;;;15.22;98.17;98641.72;5046450;28;20108;-70
2022/08/02 01:00:05;;;;;;;7.05;1.60;;;;;;;15.09;100.00;98645.75;5050425;28;20376;-70
2022/08/02 01:02:30;;;;;;;5.00;1.92;;;;;;;15.01;100.00;98654.03;5066567;28;20020;-70
2022/08/02 01:04:56;;;;;;;5.53;1.83;;;;;;;14.92;100.00;98653.47;5066491;28;20036;-70
2022/08/02 01:07:21;;;;;;;4.82;1.67;;;;;;;15.04;100.00;98647.75;5066246;28;20029;-70
2022/08/02 01:09:46;;;;;;;3.65;1.70;;;;;;;15.10;100.00;98648.34;5064794;28;20062;-70
2022/08/02 01:12:12;;;;;;;4.47;1.60;;;;;;;15.08;100.00;98654.66;5046105;28;20045;-70
2022/08/02 01:14:40;;;;;;;3.92;1.80;;;;;;;15.10;100.00;98651.00;5046086;28;20031;-70
2022/08/02 01:17:15;;;;;;;3.92;1.55;;;;;;;15.12;99.97;98657.13;5045898;28;20093;-70
2022/08/02 01:19:50;;;;;;;2.67;1.50;;;;;;;15.10;100.00;98652.81;5046437;28;20223;-70
2022/08/02 01:22:39;;;;;;;3.47;1.90;;;;;;;15.14;100.00;98663.25;5065956;28;20012;-70
2022/08/02 01:25:26;;;;;;;5.75;1.60;;;;;;;15.00;99.84;98662.03;5065914;28;20090;-70
2022/08/02 01:28:27;;;;;;;2.20;1.55;;;;;;;14.82;99.89;98658.25;5065624;28;20063;-70
2022/08/02 01:30:57;;;;;;;9.13;2.00;;;;;;;14.87;100.00;98660.72;5055271;28;20025;-70
2022/08/02 01:33:25;;;;;;;3.10;1.77;;;;;;;14.93;100.00;98665.81;5045802;28;20029;-70
2022/08/02 01:35:55;;;;;;;3.83;2.20;;;;;;;14.99;100.00;98677.06;5064739;28;20223;-70
2022/08/02 01:38:32;;;;;;;2.50;1.67;;;;;;;15.06;100.00;98675.03;5065757;28;20044;-70
2022/08/02 01:41:00;;;;;;;3.38;1.95;;;;;;;15.14;100.00;98675.63;5054665;28;20025;-70
2022/08/02 01:43:29;;;;;;;2.13;1.52;;;;;;;14.92;99.68;98674.69;5045592;28;20025;-70
2022/08/02 01:45:57;;;;;;;3.15;1.95;;;;;;;14.82;100.00;98673.28;5045596;28;20067;-70
2022/08/02 01:48:25;;;;;;;2.85;2.00;;;;;;;14.83;100.00;98681.19;5045473;28;20198;-70
2022/08/02 01:50:51;;;;;;;3.33;1.73;;;;;;;14.92;100.00;98680.88;5045420;28;20252;-70
2022/08/02 01:53:19;;;;;;;3.95;1.50;;;;;;;14.97;100.00;98686.00;5045418;28;20084;-70
2022/08/02 01:55:53;;;;;;;2.50;1.50;;;;;;;14.88;100.00;98683.66;5045413;28;20256;-70
2022/08/02 01:58:23;;;;;;;5.85;1.50;;;;;;;14.87;100.00;98677.50;5045233;28;20086;-70
2022/08/02 02:00:51;;;;;;;2.50;1.70;;;;;;;14.83;100.00;98675.00;5045258;28;20067;-70
2022/08/02 02:03:22;;;;;;;3.35;1.63;;;;;;;14.87;100.00;98669.53;5046320;28;20025;-70
2022/08/02 02:05:49;;;;;;;3.22;2.00;;;;;;;14.87;99.31;98671.31;5045442;28;20033;-70
2022/08/02 02:08:19;;;;;;;3.60;1.63;;;;;;;14.93;99.84;98671.97;5045139;28;20093;-70
2022/08/02 02:10:45;;;;;;;3.38;1.45;;;;;;;14.97;100.00;98665.63;5045328;28;20241;-70
2022/08/02 02:13:17;;;;;;;4.22;2.00;;;;;;;15.00;99.99;98672.63;5044935;28;20225;-70
2022/08/02 02:15:46;;;;;;;6.18;1.92;;;;;;;15.05;100.00;98670.66;5045235;28;20309;-70
2022/08/02 02:18:23;;;;;;;3.08;1.67;;;;;;;15.12;100.00;98669.50;5045193;28;20100;-70
2022/08/02 02:20:48;;;;;;;3.58;1.75;;;;;;;15.06;100.00;98661.78;5045001;28;20018;-70
2022/08/02 02:23:16;;;;;;;3.65;1.88;;;;;;;14.95;100.00;98654.25;5044908;28;20024;-70
2022/08/02 02:25:42;;;;;;;3.88;1.50;;;;;;;14.90;100.00;98657.97;5045942;28;20088;-70
2022/08/02 02:28:21;;;;;;;5.50;2.05;;;;;;;15.00;100.00;98656.72;5043960;28;20052;-70
2022/08/02 02:30:49;;;;;;;3.58;1.85;;;;;;;15.03;100.00;98662.78;5044985;28;20205;-70
2022/08/02 02:33:21;;;;;;;4.03;1.90;;;;;;;15.05;100.00;98665.38;5044717;28;20021;-70
2022/08/02 02:35:49;;;;;;;3.13;1.43;;;;;;;15.03;100.00;98667.22;5044692;28;20025;-70
2022/08/02 02:38:18;;;;;;;2.20;1.48;;;;;;;15.07;100.00;98658.22;5045177;28;20446;-70
2022/08/02 02:40:46;;;;;;;3.58;1.58;;;;;;;15.10;100.00;98658.13;5044484;28;20032;-70
2022/08/02 02:43:13;;;;;;;8.68;1.83;;;;;;;14.95;100.00;98654.25;5044465;28;20026;-70
2022/08/02 02:45:40;;;;;;;4.05;2.33;;;;;;;14.73;100.00;98655.06;5044462;28;20048;-70
2022/08/02 02:48:07;;;;;;;4.43;1.83;;;;;;;14.70;100.00;98652.53;5044310;28;20018;-70
2022/08/02 02:50:34;;;;;;;1.95;1.30;;;;;;;14.69;100.00;98656.94;5044393;28;20025;-70
2022/08/02 02:53:00;;;;;;;3.28;1.70;;;;;;;14.62;100.00;98654.59;5043116;28;20021;-70
2022/08/02 02:55:27;;;;;;;4.65;1.60;;;;;;;14.65;100.00;98660.63;5044291;28;20322;-70
2022/08/02 02:57:54;;;;;;;3.20;1.60;;;;;;;14.74;100.00;98654.13;5046822;28;20037;-70
2022/08/02 03:01:26;;;;;;;4.45;2.03;;;;;;;14.79;100.00;98660.16;5064207;28;20224;-70
2022/08/02 03:03:08;;;;;;;2.95;1.60;;;;;;;14.81;100.00;98664.47;5063997;28;20029;-70
2022/08/02 03:05:33;;;;;;;2.72;1.70;;;;;;;14.82;100.00;98665.34;5064067;28;20031;-70
2022/08/02 03:07:59;;;;;;;3.25;1.92;;;;;;;14.82;100.00;98670.63;5064111;28;20020;-70
2022/08/02 03:10:26;;;;;;;4.43;1.77;;;;;;;14.87;100.00;98682.78;5063993;28;20025;-70
2022/08/02 03:12:51;;;;;;;3.92;1.70;;;;;;;14.89;100.00;98680.09;5064054;28;20131;-70
2022/08/02 03:15:16;;;;;;;2.10;1.48;;;;;;;14.91;100.00;98678.25;5048797;28;20036;-70
2022/08/02 03:17:44;;;;;;;4.22;1.60;;;;;;;14.80;100.00;98680.41;5043995;28;20343;-70
2022/08/02 03:20:14;;;;;;;1.35;1.25;;;;;;;14.63;100.00;98682.81;5044023;28;20268;-70
2022/08/02 03:22:40;;;;;;;3.53;1.45;;;;;;;14.58;100.00;98684.72;5043931;28;20024;-70
2022/08/02 03:25:07;;;;;;;3.05;2.00;;;;;;;14.52;100.00;98677.00;5058420;28;20029;-70
2022/08/02 03:27:33;;;;;;;3.63;1.58;;;;;;;14.46;100.00;98670.13;5063609;28;20033;-70
2022/08/02 03:29:58;;;;;;;4.13;1.88;;;;;;;14.48;100.00;98672.72;5063837;28;20033;-70
2022/08/02 03:32:24;;;;;;;3.58;1.35;;;;;;;14.55;100.00;98671.59;5063692;28;20313;-70
2022/08/02 03:34:49;;;;;;;3.38;1.70;;;;;;;14.61;100.00;98674.03;5063805;28;20028;-70
2022/08/02 03:37:15;;;;;;;3.15;1.75;;;;;;;14.64;100.00;98674.81;5063838;28;20028;-70
2022/08/02 03:39:41;;;;;;;6.93;1.88;;;;;;;14.65;100.00;98678.31;5063746;28;20024;-70
2022/08/02 03:42:08;;;;;;;8.43;1.95;;;;;;;14.69;100.00;98678.13;5052651;28;20022;-70
2022/08/02 03:44:36;;;;;;;2.63;1.50;;;;;;;14.72;100.00;98675.38;5047883;28;20067;-70
2022/08/02 03:47:02;;;;;;;2.63;1.65;;;;;;;14.67;100.00;98677.34;5047778;28;20047;-70
2022/08/02 03:49:30;;;;;;;6.80;1.67;;;;;;;14.67;100.00;98684.41;5047777;28;20025;-70
2022/08/02 03:51:56;;;;;;;3.00;1.63;;;;;;;14.74;100.00;98685.94;5050478;28;20044;-70
2022/08/02 03:54:22;;;;;;;4.45;1.77;;;;;;;14.72;100.00;98688.63;5067116;28;20029;-70
2022/08/02 03:56:47;;;;;;;4.45;1.73;;;;;;;14.77;100.00;98683.16;5050632;28;20045;-70
2022/08/02 03:59:13;;;;;;;3.03;1.77;;;;;;;14.85;100.00;98678.47;5047519;28;20317;-70
2022/08/02 04:01:39;;;;;;;3.05;1.80;;;;;;;14.91;100.00;98683.56;5047519;28;20021;-70
2022/08/02 04:04:06;;;;;;;2.63;1.55;;;;;;;14.95;100.00;98682.53;5065192;28;20092;-70
2022/08/02 04:06:31;;;;;;;5.15;1.60;;;;;;;14.92;100.00;98688.81;5053856;28;20029;-70
2022/08/02 04:08:57;;;;;;;4.45;1.50;;;;;;;14.75;100.00;98682.38;5047409;28;20068;-70
2022/08/02 04:11:40;;;;;;;4.25;2.33;;;;;;;14.82;100.00;98689.19;5047305;28;20025;-70
2022/08/02 04:14:10;;;;;;;4.57;1.40;;;;;;;14.86;100.00;98681.06;5047308;28;20026;-70
2022/08/02 04:16:53;;;;;;;4.25;1.98;;;;;;;14.85;100.00;98683.78;5047290;28;20036;-70
2022/08/02 04:19:26;;;;;;;3.95;1.80;;;;;;;14.81;100.00;98684.81;5047218;28;20256;-70
2022/08/02 04:21:55;;;;;;;4.00;1.60;;;;;;;14.82;100.00;98689.19;5047097;28;20017;-70
2022/08/02 04:24:24;;;;;;;4.68;1.73;;;;;;;14.84;100.00;98687.34;5047195;28;20021;-70
2022/08/02 04:26:50;;;;;;;3.50;1.80;;;;;;;14.83;100.00;98693.56;5046985;28;20221;-70
2022/08/02 04:29:17;;;;;;;3.30;1.95;;;;;;;14.78;100.00;98687.56;5046853;28;20045;-70
2022/08/02 04:31:43;;;;;;;3.35;1.90;;;;;;;14.81;100.00;98692.75;5046883;28;20021;-70
2022/08/02 04:34:09;;;;;;;4.38;1.50;;;;;;;14.83;100.00;98694.44;5046928;28;20036;-70
2022/08/02 04:36:35;;;;;;;2.53;1.67;;;;;;;14.88;100.00;98696.91;5046892;28;20029;-70
2022/08/02 04:39:00;;;;;;;2.72;1.90;;;;;;;14.93;100.00;98693.19;5046806;28;20260;-70
2022/08/02 04:41:40;;;;;;;7.38;1.73;;;;;;;15.04;100.00;98695.47;5046811;28;20021;-70
2022/08/02 04:44:05;;;;;;;5.72;1.60;;;;;;;15.08;100.00;98686.47;5046658;28;20084;-70
2022/08/02 04:46:31;;;;;;;2.88;1.55;;;;;;;15.10;100.00;98692.59;5046708;28;20079;-70
2022/08/02 04:48:56;;;;;;;3.08;1.52;;;;;;;15.18;99.78;98701.09;5046915;28;20021;-70
2022/08/02 04:51:22;;;;;;;3.33;1.75;;;;;;;15.18;99.07;98699.34;5046034;28;20091;-70
2022/08/02 04:53:47;;;;;;;6.15;1.60;;;;;;;15.02;99.42;98698.16;5046597;28;20105;-70
2022/08/02 04:56:13;;;;;;;2.50;1.73;;;;;;;15.33;100.00;98703.19;5046523;28;20066;-70
2022/08/02 04:58:38;;;;;;;4.82;1.70;;;;;;;15.49;98.21;98703.50;5046451;28;20088;-70
2022/08/02 05:01:03;;;;;;;3.40;1.65;;;;;;;15.48;97.76;98713.28;5046440;28;20067;-70
2022/08/02 05:03:29;;;;;;;2.65;1.70;;;;;;;15.44;97.87;98711.66;5046446;28;20212;-70
2022/08/02 05:05:54;;;;;;;4.22;1.83;;;;;;;15.40;97.37;98710.03;5046392;28;20107;-70
2022/08/02 05:08:20;;;;;;;2.13;1.50;;;;;;;15.31;98.53;98715.63;5046336;28;20054;-70
2022/08/02 05:10:45;;;;;;;4.22;1.80;;;;;;;15.31;98.92;98720.94;5046313;28;20021;-70
2022/08/02 05:13:10;;;;;;;3.33;1.75;;;;;;;15.46;98.45;98709.81;5046140;28;20026;-70
2022/08/02 05:15:36;;;;;;;2.75;1.55;;;;;;;15.53;97.81;98711.31;5046181;28;20084;-70
2022/08/02 05:18:01;;;;;;;2.38;1.58;;;;;;;15.91;97.15;98716.00;5046101;28;20028;-70
2022/08/02 05:20:26;;;;;;;4.15;1.75;;;;;;;16.95;92.66;98717.84;5046153;28;20147;-70
2022/08/02 05:22:52;;;;;;;3.35;1.70;;;;;;;18.16;86.84;98717.59;5046049;28;20040;-70
2022/08/02 05:25:17;;;;;;;3.47;1.67;;;;;;;19.00;81.69;98713.31;5046051;28;20060;-70
2022/08/02 05:27:43;;;;;;;2.20;1.40;;;;;;;19.97;78.35;98708.94;5045763;28;20075;-70
2022/08/02 05:30:09;;;;;;;5.53;1.08;;;;;;;20.62;74.96;98708.75;5046271;28;20205;-70
2022/08/02 05:32:41;;;;;;;1.35;1.25;;;;;;;20.54;74.14;98705.66;5046127;28;20026;-70
2022/08/02 05:35:07;;;;;;;2.65;1.25;;;;;;;20.82;72.96;98706.63;5045908;28;20032;-70
2022/08/02 05:37:32;;;;;;;4.43;1.38;;;;;;;21.13;72.01;98708.34;5045848;28;20021;-70
2022/08/02 05:39:58;;;;;;;5.93;1.40;;;;;;;21.22;71.31;98711.34;5045999;28;20025;-70
2022/08/02 05:42:23;;;;;;;2.92;1.10;;;;;;;21.37;72.09;98714.03;5046105;28;20024;-70
2022/08/02 05:44:49;;;;;;;2.35;1.42;;;;;;;22.26;67.83;98722.63;5046049;28;20327;-70
2022/08/02 05:47:14;;;;;;;3.42;1.30;;;;;;;22.63;66.15;98724.66;5045695;28;20028;-70
2022/08/02 05:49:39;;;;;;;2.70;1.27;;;;;;;22.79;65.34;98722.66;5045633;28;20025;-70
2022/08/02 05:52:11;;;;;;;2.15;1.65;;;;;;;23.27;64.08;98724.75;5045466;28;20025;-70
2022/08/02 05:55:00;;;;;;;8.15;1.50;;;;;;;23.79;63.90;98733.53;5045433;28;20025;-70
2022/08/02 05:57:47;;;;;;;3.92;1.50;;;;;;;24.49;62.04;98732.88;5045482;28;20025;-70
2022/08/02 06:00:14;;;;;;;3.03;1.27;;;;;;;24.72;60.49;98741.97;5045320;28;20025;-70
2022/08/02 06:02:42;;;;;;;4.43;1.60;;;;;;;24.97;59.94;98731.94;5044459;28;20314;-70
2022/08/02 06:05:13;;;;;;;3.80;1.60;;;;;;;25.74;58.35;98727.75;5045481;28;20031;-70
2022/08/02 06:07:43;;;;;;;2.97;1.47;;;;;;;26.31;56.96;98728.50;5045189;28;20035;-70
2022/08/02 06:10:13;;;;;;;3.22;1.50;;;;;;;26.09;56.30;98720.41;5045396;28;20316;-70
2022/08/02 06:13:04;;;;;;;6.70;1.60;;;;;;;26.44;56.96;98729.22;5045267;28;20317;-71
2022/08/02 06:15:29;;;;;;;2.75;1.45;;;;;;;27.01;55.55;98732.50;5045101;28;20022;-71
2022/08/02 06:17:57;;;;;;;3.55;1.40;;;;;;;27.08;54.08;98717.47;5045033;28;20025;-71
2022/08/02 06:20:23;;;;;;;4.97;1.52;;;;;;;26.85;53.59;98718.56;5045008;28;20021;-71
2022/08/02 06:22:50;;;;;;;2.45;1.20;;;;;;;26.91;55.45;98718.06;5044877;28;20339;-71
2022/08/02 06:25:18;;;;;;;3.13;1.60;;;;;;;27.88;53.00;98719.53;5044783;28;20021;-71
2022/08/02 06:27:45;;;;;;;5.03;1.58;;;;;;;27.65;53.50;98726.03;5044559;28;20076;-71
2022/08/02 06:30:10;;;;;;;3.08;1.83;;;;;;;27.45;53.22;98716.09;5044733;28;20257;-71
2022/08/02 06:32:36;;;;;;;2.55;1.60;;;;;;;26.01;58.46;98715.69;5044629;28;20026;-71
2022/08/02 06:35:03;;;;;;;5.05;1.50;;;;;;;26.16;58.58;98718.97;5044687;28;20270;-71
2022/08/02 06:37:50;;;;;;;4.80;1.80;;;;;;;25.65;59.56;98713.16;5044544;28;20032;-71
2022/08/02 06:40:16;;;;;;;3.00;1.85;;;;;;;25.57;59.51;98714.75;5044526;28;20021;-71
2022/08/02 06:43:05;;;;;;;6.30;1.88;;;;;;;26.57;57.78;98719.13;5044523;28;20017;-71
2022/08/02 06:45:32;;;;;;;3.80;2.00;;;;;;;27.52;54.87;98724.53;5043319;28;20042;-71
2022/08/02 06:47:57;;;;;;;3.83;2.00;;;;;;;27.82;53.96;98722.72;5044673;28;20100;-71
2022/08/02 06:50:23;;;;;;;2.33;1.95;;;;;;;28.90;52.13;98734.53;5044508;28;20021;-71
2022/08/02 06:52:48;;;;;;;2.60;1.98;;;;;;;29.73;49.84;98733.97;5044307;28;20095;-71
2022/08/02 06:55:14;;;;;;;7.50;2.53;;;;;;;28.73;49.81;98721.66;5044311;28;20021;-71
2022/08/02 06:57:39;;;;;;;5.45;2.35;;;;;;;29.33;50.04;98738.69;5044305;28;20029;-71
2022/08/02 07:00:08;;;;;;;2.58;2.05;;;;;;;29.89;47.76;98723.34;5044286;28;20025;-71
2022/08/02 07:02:35;;;;;;;5.03;2.53;;;;;;;29.88;47.74;98717.06;5044239;28;20017;-71
2022/08/02 07:05:01;;;;;;;8.98;2.33;;;;;;;28.60;49.66;98704.81;5044458;28;20025;-71
2022/08/02 07:07:27;;;;;;;6.03;2.40;;;;;;;28.69;50.40;98719.34;5044115;28;20021;-71
2022/08/02 07:09:52;;;;;;;5.72;2.20;;;;;;;29.40;48.77;98718.13;5044181;28;20041;-71
2022/08/02 07:12:18;;;;;;;6.63;2.35;;;;;;;29.19;49.36;98713.72;5044023;28;20061;-71
2022/08/02 07:14:44;;;;;;;5.22;2.50;;;;;;;27.50;51.91;98696.78;5043829;28;20029;-71
2022/08/02 07:17:09;;;;;;;4.90;2.75;;;;;;;26.07;56.91;98698.13;5044103;28;20335;-71
2022/08/02 07:19:35;;;;;;;5.03;2.80;;;;;;;26.47;56.46;98712.75;5044107;28;20088;-71
2022/08/02 07:22:00;;;;;;;4.68;2.58;;;;;;;28.00;53.51;98718.41;5043936;28;20081;-71
2022/08/02 07:24:26;;;;;;;6.78;2.78;;;;;;;28.85;50.81;98719.66;5043891;28;20025;-71
2022/08/02 07:26:51;;;;;;;9.13;2.70;;;;;;;29.33;49.25;98719.72;5043865;28;20048;-71
2022/08/02 07:29:17;;;;;;;7.88;2.50;;;;;;;29.89;47.69;98712.50;5043782;28;20049;-71
2022/08/02 07:31:42;;;;;;;3.00;2.00;;;;;;;31.29;46.71;98728.28;5043853;28;20056;-71
2022/08/02 07:34:07;;;;;;;5.70;2.22;;;;;;;31.31;43.72;98720.84;5043951;28;20215;-71
2022/08/02 07:36:33;;;;;;;5.30;2.50;;;;;;;31.77;43.95;98724.09;5043829;28;20025;-71
2022/08/02 07:38:58;;;;;;;6.38;2.42;;;;;;;33.18;42.01;98726.09;5043914;28;20325;-71
2022/08/02 07:41:24;;;;;;;4.00;2.22;;;;;;;30.67;44.24;98715.53;5043896;28;20029;-71
2022/08/02 07:43:49;;;;;;;3.88;2.50;;;;;;;29.83;45.80;98719.34;5044067;28;20037;-71
2022/08/02 07:46:14;;;;;;;7.60;2.40;;;;;;;29.58;46.48;98708.25;5043763;28;20021;-71
2022/08/02 07:48:40;;;;;;;2.78;2.22;;;;;;;28.80;47.36;98703.84;5043762;28;20033;-71
2022/08/02 07:51:05;;;;;;;3.42;2.38;;;;;;;28.00;49.67;98699.47;5043598;28;20057;-71
2022/08/02 07:53:31;;;;;;;2.92;2.42;;;;;;;28.16;50.64;98704.38;5043728;28;20025;-71
2022/08/02 07:55:56;;;;;;;4.65;2.33;;;;;;;28.46;50.24;98707.06;5043665;28;20021;-71
2022/08/02 07:58:21;;;;;;;6.00;2.67;;;;;;;27.58;52.20;98697.81;5043687;28;20021;-71
2022/08/02 08:00:47;;;;;;;3.78;2.70;;;;;;;27.45;53.08;98702.56;5043574;28;20026;-71
2022/08/02 08:03:12;;;;;;;4.53;2.30;;;;;;;28.89;51.57;98719.25;5043587;28;20028;-71
2022/08/02 08:05:38;;;;;;;3.20;2.35;;;;;;;30.55;46.79;98722.19;5043575;28;20021;-71
2022/08/02 08:08:04;;;;;;;3.97;2.35;;;;;;;31.48;44.93;98722.66;5043494;28;20021;-71
2022/08/02 08:10:31;;;;;;;5.00;2.60;;;;;;;32.38;42.73;98721.22;5043554;28;20022;-71
2022/08/02 08:12:56;;;;;;;3.67;2.38;;;;;;;33.23;41.50;98720.97;5043396;28;20055;-71
2022/08/02 08:15:22;;;;;;;4.05;2.78;;;;;;;32.03;42.07;98708.63;5043552;28;20092;-71
2022/08/02 08:17:47;;;;;;;3.92;2.60;;;;;;;31.93;42.45;98712.47;5043623;28;20025;-71
2022/08/02 08:20:13;;;;;;;5.57;2.80;;;;;;;32.47;41.27;98703.91;5043494;28;20256;-71
2022/08/02 08:22:38;;;;;;;3.42;2.45;;;;;;;33.33;41.06;98713.47;5043523;28;20024;-71
2022/08/02 08:25:04;;;;;;;2.95;2.38;;;;;;;33.52;39.95;98710.41;5043488;28;20254;-71
2022/08/02 08:27:29;;;;;;;2.65;2.05;;;;;;;34.29;39.76;98718.84;5046105;28;20045;-71
2022/08/02 08:29:55;;;;;;;4.50;2.55;;;;;;;34.25;39.09;98715.59;5047259;28;20267;-71
2022/08/02 08:32:20;;;;;;;4.05;2.47;;;;;;;34.26;39.37;98711.00;5047175;28;20021;-71
2022/08/02 08:34:46;;;;;;;3.45;2.50;;;;;;;33.39;39.52;98701.91;5047105;28;20021;-71
2022/08/02 08:37:12;;;;;;;4.60;2.40;;;;;;;30.79;44.71;98698.03;5046926;28;20083;-71
2022/08/02 08:39:38;;;;;;;4.70;2.58;;;;;;;29.60;47.31;98687.22;5046886;28;20035;-71
2022/08/02 08:42:07;;;;;;;3.97;2.92;;;;;;;30.12;46.67;98697.53;5046868;28;20041;-71
2022/08/02 08:44:34;;;;;;;3.38;2.45;;;;;;;31.32;43.99;98701.63;5047026;28;20321;-71
2022/08/02 08:47:00;;;;;;;9.52;2.90;;;;;;;31.90;41.85;98699.16;5046765;28;20032;-71
2022/08/02 08:49:29;;;;;;;6.18;2.65;;;;;;;32.43;42.97;98711.53;5046754;28;20025;-71
2022/08/02 08:51:55;;;;;;;4.45;2.50;;;;;;;33.21;41.36;98712.13;5046530;28;20018;-71
2022/08/02 08:54:24;;;;;;;3.10;2.70;;;;;;;33.39;39.92;98710.94;5046896;28;20220;-71
2022/08/02 08:56:50;;;;;;;4.82;2.63;;;;;;;34.26;39.21;98716.47;5046776;28;20021;-71
2022/08/02 08:59:16;;;;;;;5.22;2.78;;;;;;;34.56;38.56;98713.81;5046700;28;20021;-71
2022/08/02 09:01:44;;;;;;;4.22;2.50;;;;;;;34.59;37.64;98718.03;5046702;28;20028;-71
2022/08/02 09:04:09;;;;;;;3.22;2.35;;;;;;;35.32;38.09;98724.78;5046651;28;20033;-71
2022/08/02 09:06:35;;;;;;;2.80;2.30;;;;;;;34.91;37.01;98718.75;5046641;28;20028;-71
2022/08/02 09:09:00;;;;;;;4.85;2.70;;;;;;;33.49;39.11;98710.75;5046644;28;20387;-71
2022/08/02 09:11:25;;;;;;;6.25;2.85;;;;;;;33.09;39.22;98712.44;5046777;28;20245;-71
2022/08/02 09:13:57;;;;;;;7.15;2.88;;;;;;;33.73;38.96;98713.47;5046580;28;20332;-71
2022/08/02 09:16:40;;;;;;;5.90;2.80;;;;;;;34.83;37.52;98721.50;5046489;28;20347;-71
2022/08/02 09:19:35;;;;;;;2.90;2.50;;;;;;;35.29;37.41;98716.09;5046321;28;20076;-71
2022/08/02 09:22:04;;;;;;;2.67;2.17;;;;;;;35.57;35.61;98714.50;5037631;28;20029;-71
2022/08/02 09:24:44;;;;;;;3.25;2.20;;;;;;;35.86;35.62;98720.09;5046446;28;20025;-71
2022/08/02 09:27:15;;;;;;;4.95;2.28;;;;;;;35.86;36.23;98720.94;5046440;28;20026;-71
2022/08/02 09:29:44;;;;;;;3.65;2.53;;;;;;;35.20;36.67;98709.81;5046396;28;20347;-71
2022/08/02 09:32:10;;;;;;;7.05;2.70;;;;;;;36.05;34.88;98714.91;5046035;28;20030;-71
2022/08/02 09:34:46;;;;;;;2.55;2.30;;;;;;;36.02;34.09;98712.56;5046031;28;20049;-71
2022/08/02 09:37:41;;;;;;;3.80;2.40;;;;;;;36.12;34.74;98707.63;5045905;28;20021;-71
2022/08/02 09:40:09;;;;;;;2.83;2.30;;;;;;;36.16;34.55;98710.88;5037389;28;20041;-71
2022/08/02 09:42:34;;;;;;;2.58;2.10;;;;;;;35.60;35.15;98709.53;5046027;28;20017;-71
2022/08/02 09:45:01;;;;;;;3.78;2.10;;;;;;;36.26;34.89;98706.81;5046138;28;20071;-71
2022/08/02 09:47:27;;;;;;;3.78;2.00;;;;;;;36.02;34.12;98709.81;5045961;28;20041;-71
2022/08/02 09:49:54;;;;;;;5.07;2.22;;;;;;;35.85;34.92;98713.78;5045922;28;20355;-71
2022/08/02 09:52:38;;;;;;;3.75;2.10;;;;;;;36.55;33.79;98714.19;5045994;28;20021;-71
2022/08/02 09:55:04;;;;;;;3.28;2.15;;;;;;;36.19;33.32;98711.31;5045862;28;20341;-71
2022/08/02 09:57:32;;;;;;;4.82;2.13;;;;;;;36.15;33.73;98704.53;5045753;28;20025;-71
2022/08/02 09:59:58;;;;;;;3.42;1.88;;;;;;;36.18;33.21;98712.38;5045637;28;20344;-71
2022/08/02 10:02:24;;;;;;;2.42;2.05;;;;;;;36.40;33.64;98707.84;5045607;28;20021;-71
2022/08/02 10:04:50;;;;;;;2.38;2.00;;;;;;;36.65;32.35;98711.97;5045471;28;20025;-71
2022/08/02 10:07:16;;;;;;;2.38;1.80;;;;;;;36.05;32.23;98693.00;5045449;28;20032;-71
2022/08/02 10:09:44;;;;;;;3.22;1.90;;;;;;;34.81;34.90;98687.16;5045908;28;20022;-71
2022/08/02 10:12:11;;;;;;;4.38;2.13;;;;;;;35.33;33.65;98695.56;5045118;28;20021;-71
2022/08/02 10:14:37;;;;;;;4.70;2.08;;;;;;;35.66;33.27;98688.75;5045233;28;20029;-71
2022/08/02 10:17:04;;;;;;;4.35;2.00;;;;;;;35.68;33.63;98689.44;5045197;28;20031;-71
2022/08/02 10:19:30;;;;;;;4.28;2.03;;;;;;;35.77;32.84;98686.41;5045451;28;20021;-71
2022/08/02 10:22:03;;;;;;;4.70;2.30;;;;;;;35.32;33.04;98683.72;5045318;28;20044;-71
2022/08/02 10:24:31;;;;;;;4.47;2.25;;;;;;;36.29;32.72;98681.75;5044997;28;20217;-71
2022/08/02 10:26:59;;;;;;;2.30;2.10;;;;;;;36.58;32.81;98684.50;5045098;28;20021;-71
2022/08/02 10:29:35;;;;;;;4.38;2.10;;;;;;;36.46;33.27;98685.16;5045012;28;20037;-71
2022/08/02 10:32:06;;;;;;;2.63;2.00;;;;;;;36.70;33.34;98687.56;5045022;28;20381;-71
2022/08/02 10:34:59;;;;;;;4.90;1.90;;;;;;;36.46;32.56;98668.69;5045144;28;20032;-71
2022/08/02 10:37:32;;;;;;;2.70;2.05;;;;;;;37.01;33.72;98673.59;5045046;28;20371;-71
2022/08/02 10:39:58;;;;;;;2.63;2.15;;;;;;;36.36;33.66;98669.00;5044959;28;20049;-71
2022/08/02 10:42:44;;;;;;;4.20;2.30;;;;;;;35.16;34.49;98651.03;5044686;28;20017;-71
2022/08/02 10:45:13;;;;;;;2.47;2.13;;;;;;;35.30;34.21;98661.16;5044832;28;20313;-71
2022/08/02 10:47:55;;;;;;;4.00;1.98;;;;;;;34.54;34.64;98649.38;5044726;28;20263;-71
2022/08/02 10:50:20;;;;;;;3.10;2.10;;;;;;;33.41;36.35;98634.38;5044085;28;20021;-71
2022/08/02 10:52:45;;;;;;;2.83;2.00;;;;;;;32.90;36.92;98628.19;5044374;28;20100;-71
2022/08/02 10:55:13;;;;;;;4.03;2.08;;;;;;;33.49;36.66;98639.78;5044399;28;20029;-71
2022/08/02 10:57:38;;;;;;;3.17;2.03;;;;;;;34.59;34.35;98647.81;5044335;28;20053;-71
2022/08/02 11:00:23;;;;;;;1.50;1.40;;;;;;;34.87;31.04;98639.97;5044262;28;20025;-71
2022/08/02 11:02:48;;;;;;;2.80;1.60;;;;;;;34.85;30.81;98637.41;5044296;28;20190;-71
2022/08/02 11:05:17;;;;;;;4.38;1.55;;;;;;;35.17;30.35;98636.28;5044280;28;20028;-71
2022/08/02 11:07:48;;;;;;;2.55;1.33;;;;;;;35.59;31.65;98636.59;5044260;28;20190;-70
2022/08/02 11:10:25;;;;;;;3.03;1.55;;;;;;;35.77;31.90;98639.84;5044323;28;20045;-70
2022/08/02 11:13:13;;;;;;;2.80;1.67;;;;;;;35.01;32.64;98619.19;5044231;28;20053;-71
2022/08/02 11:15:54;;;;;;;3.75;1.95;;;;;;;35.47;31.63;98620.81;5044168;28;20119;-71
2022/08/02 11:18:21;;;;;;;3.78;1.95;;;;;;;35.07;31.61;98619.28;5044371;28;20336;-71
2022/08/02 11:20:46;;;;;;;3.85;1.85;;;;;;;35.06;31.91;98614.84;5044008;28;20032;-71
2022/08/02 11:23:37;;;;;;;2.72;1.85;;;;;;;33.97;32.67;98613.25;5044019;28;20217;-71
2022/08/02 11:26:31;;;;;;;3.83;1.80;;;;;;;34.90;33.06;98623.19;5044210;28;20206;-71
2022/08/02 11:28:59;;;;;;;2.92;1.90;;;;;;;35.22;32.01;98611.13;5043674;28;20045;-71
2022/08/02 11:31:25;;;;;;;2.28;1.70;;;;;;;34.82;32.40;98601.31;5044164;28;20070;-71
2022/08/02 11:33:51;;;;;;;1.83;1.60;;;;;;;34.70;33.29;98619.19;5043950;28;20032;-71
2022/08/02 11:36:17;;;;;;;4.63;1.98;;;;;;;34.88;32.26;98615.16;5043888;28;20033;-71
2022/08/02 11:38:43;;;;;;;4.53;1.70;;;;;;;34.25;33.92;98608.16;5043869;28;20045;-71